logo dgac
Martes 20 de Noviembre del 2018
Buscar por aerodromo o helipuerto
Ingrese nombre de aeródromo, localidad o designador OACI:

Aeródromo: De la Independencia (SCRG)

Ubicación: Rancagua, VI Región, Chile (34º 10' 28'' S, 70º 46' 32'' W) Ver ubicación en el mapa

Pistas

Orientación Dimensión Pendiente Superficie Resistencia APCH THR RWY PAPI
21/03 1650 x 23 Pavimento / ASPH 22.727 Kg / 34.090 kG No No No
Horas de operación HJ
Elevación 486.6 m / 1597 ft
Otra Información Adm : Ejercito de Chile
Uso : MIL
TEL 226935635
Ubicado a 2 km W de Rancagua

Otra información ver AIP-Chile Volumen I AD 3.9-17.1-R
andera de Chile
Mapa de De la Independencia (SCRG)

Último METAR

METAR SCRG 201400Z 21006KT CAVOK ///// Q1015

Último TAF

TAF SCRG 201007Z 2012/2024 21004KT CAVOK TX31/2018Z TN12/2012Z TEMPO 2012/2016 32004KT

Últimas fotos cámaras

Imagen aerodromo De la Independencia (SCRG) Sur tomada el 20-11-2018 11:36:55 Imagen aerodromo De la Independencia (SCRG) Norte tomada el 20-11-2018 11:37:17

Último NOTAM

No hay notams registrados para este aeródromo

LLegadas a De la Independencia (SCRG)

En vuelo

Vuelo Procedencia Hora Despegue Local Hora Arribo Local

Salidas de De la Independencia (SCRG)

En vuelo

Vuelo Hacia Hora Despegue Local Hora Arribo Local
CCKRT Viña del Mar (PUB) (SCVM) 11:30 13:30